New Bedford Regional Airport New Bedford US
ICAO: KEWB
IATA: EWB
Category: Medium
Scheduled Services: Yes

Elevation: 80 ft
TransAlt. 18000 ft.

Airport Communications:
PROVIDENCE APP/DEP:128.7
ATIS:126.85
CTAF:118.1
GND:121.9
TWR:118.1
UNICOM:122.95

KEWB Zoom In..

If you have problems with the map follow the link
https://www.worldairports.se/pages/airport.php?
ICAO=KEWB

Runways:

(A) RW 05 length 4997 ft width 150 ft
ILS 109.70 / hdg 54

(B) RW 14 length 5000 ft width 150 ft
---- / hdg 144

(C) RW 23 length 4997 ft width 150 ft
---- / hdg 234

(D) RW 32 length 5000 ft width 150 ft
---- / hdg 324

Location; KEWB
Day. 20 / Time. 20.53 Zulu
* Altimeter: 30.48
* Temperature: -02° c. -28.4°f.
* Wind from: 230° Speed 06 kn.
Dewpoint: -13° c.
Visibility: 10 Statute Miles.
Clouds: Overcast 9000 ft.

KEWB 202053Z 23006KT 10SM OVC090 M02/M13 A3048 RMK AO2 SLP321 T10171128 56012


Wind From 230°
Speed 06 kn.

 
 
jpsmedia.com for Web Design worldairports.se 2019   terms of use